Time;durP1;ratioP1;P1;durP2;ratioP2;P2;SDS_P1;SDS_P2;PMS_P1;PMS_P2;Temp;Humidity;BMP_temperature;BMP_pressure;BME280_temperature;BME280_humidity;BME280_pressure;Samples;Min_cycle;Max_cycle;Signal;HPM_P1;HPM_P2
2020/12/22 00:01:26;;;;;;;;;;;12.70;99.90;;;;;;5020168;28;19921;-70
2020/12/22 00:03:52;;;;;;;;;;;12.70;99.90;;;;;;5025934;28;19952;-70
2020/12/22 00:06:24;;;;;;;;;;;12.70;99.90;;;;;;5023702;28;19975;-70
2020/12/22 00:08:51;;;;;;;;;;;12.80;99.90;;;;;;5026201;28;19955;-70
2020/12/22 00:11:18;;;;;;;;;;;12.80;99.90;;;;;;5025572;28;19924;-71
2020/12/22 00:13:44;;;;;;;;;;;12.80;99.90;;;;;;5009936;28;20016;-71
2020/12/22 00:16:11;;;;;;;;;;;12.80;99.90;;;;;;5023217;28;19941;-71
2020/12/22 00:18:37;;;;;;;;;;;12.80;99.90;;;;;;5018838;28;19921;-71
2020/12/22 00:21:04;;;;;;;;;;;12.80;99.90;;;;;;5022995;28;20106;-71
2020/12/22 00:23:31;;;;;;;;;;;12.80;99.90;;;;;;5024338;28;19932;-70
2020/12/22 00:25:57;;;;;;;;;;;12.80;99.90;;;;;;5029516;28;20350;-71
2020/12/22 00:28:24;;;;;;;;;;;12.80;99.90;;;;;;5024072;28;19925;-71
2020/12/22 00:30:51;;;;;;;;;;;12.80;99.90;;;;;;5023697;28;19925;-71
2020/12/22 00:33:18;;;;;;;;;;;12.80;99.90;;;;;;5022868;28;19921;-70
2020/12/22 00:35:44;;;;;;;;;;;12.80;99.90;;;;;;5022714;28;19975;-71
2020/12/22 00:38:11;;;;;;;;;;;12.80;99.90;;;;;;5025616;28;20291;-70
2020/12/22 00:40:38;;;;;;;;;;;12.80;99.90;;;;;;5022947;28;19922;-70
2020/12/22 00:43:05;;;;;;;;;;;12.90;99.90;;;;;;5026890;28;20368;-70
2020/12/22 00:45:31;;;;;;;;;;;12.90;99.90;;;;;;5019633;28;19929;-70
2020/12/22 00:47:58;;;;;;;;;;;12.90;99.90;;;;;;5015283;28;19983;-70
2020/12/22 00:50:24;;;;;;;;;;;12.80;99.90;;;;;;5023487;28;19921;-71
2020/12/22 00:52:50;;;;;;;;;;;12.80;99.90;;;;;;5023139;28;20018;-70
2020/12/22 00:55:17;;;;;;;;;;;12.80;99.90;;;;;;5039079;28;19952;-69
2020/12/22 00:57:43;;;;;;;;;;;12.80;99.90;;;;;;5020405;28;19925;-71
2020/12/22 01:00:13;;;;;;;;;;;12.80;99.90;;;;;;5028743;28;19957;-71
2020/12/22 01:02:40;;;;;;;;;;;12.80;99.90;;;;;;5020285;28;19968;-70
2020/12/22 01:05:06;;;;;;;;;;;12.80;99.90;;;;;;5042282;28;19921;-70
2020/12/22 01:07:34;;;;;;;;;;;12.80;99.90;;;;;;5046007;28;19995;-70
2020/12/22 01:10:01;;;;;;;;;;;12.80;99.90;;;;;;5030100;28;20387;-70
2020/12/22 01:12:27;;;;;;;;;;;12.80;99.90;;;;;;5024302;28;19979;-70
2020/12/22 01:14:54;;;;;;;;;;;12.80;99.90;;;;;;5030707;28;19990;-70
2020/12/22 01:17:20;;;;;;;;;;;12.80;99.90;;;;;;5029708;28;19925;-71
2020/12/22 01:19:47;;;;;;;;;;;12.80;99.90;;;;;;5019811;28;20048;-71
2020/12/22 01:22:14;;;;;;;;;;;12.80;99.90;;;;;;5024908;28;20365;-70
2020/12/22 01:24:40;;;;;;;;;;;12.80;99.90;;;;;;5030279;28;19957;-70
2020/12/22 01:27:06;;;;;;;;;;;12.80;99.90;;;;;;5026672;28;19967;-70
2020/12/22 01:29:33;;;;;;;;;;;12.80;99.90;;;;;;5024486;28;20360;-70
2020/12/22 01:31:59;;;;;;;;;;;12.80;99.90;;;;;;5016592;28;20316;-71
2020/12/22 01:34:26;;;;;;;;;;;12.80;99.90;;;;;;5026803;28;20333;-70
2020/12/22 01:36:52;;;;;;;;;;;12.80;99.90;;;;;;5031093;28;19960;-70
2020/12/22 01:39:18;;;;;;;;;;;12.80;99.90;;;;;;5026853;28;20040;-70
2020/12/22 01:41:45;;;;;;;;;;;12.80;99.90;;;;;;5029666;28;20387;-70
2020/12/22 01:44:16;;;;;;;;;;;12.80;99.90;;;;;;5023684;28;19925;-70
2020/12/22 01:46:46;;;;;;;;;;;12.80;99.90;;;;;;5033789;28;20376;-70
2020/12/22 01:49:15;;;;;;;;;;;12.80;99.90;;;;;;5018421;28;19987;-70
2020/12/22 01:51:46;;;;;;;;;;;12.80;99.90;;;;;;5031424;28;20379;-71
2020/12/22 01:54:14;;;;;;;;;;;12.90;99.90;;;;;;5026270;28;19941;-70
2020/12/22 01:56:40;;;;;;;;;;;12.90;99.90;;;;;;5032005;28;19975;-70
2020/12/22 01:59:08;;;;;;;;;;;12.90;99.90;;;;;;5018248;28;20019;-70
2020/12/22 02:01:35;;;;;;;;;;;12.90;99.90;;;;;;5028580;28;20008;-71
2020/12/22 02:04:02;;;;;;;;;;;12.80;99.90;;;;;;5027105;28;20340;-70
2020/12/22 02:06:29;;;;;;;;;;;12.80;99.90;;;;;;5029973;28;19925;-71
2020/12/22 02:08:56;;;;;;;;;;;12.80;99.90;;;;;;5027024;28;20328;-71
2020/12/22 02:11:28;;;;;;;;;;;12.80;99.90;;;;;;5025659;28;20376;-71
2020/12/22 02:13:58;;;;;;;;;;;12.80;99.90;;;;;;5025552;28;20014;-71
2020/12/22 02:16:25;;;;;;;;;;;12.80;99.90;;;;;;5017725;28;19960;-71
2020/12/22 02:18:52;;;;;;;;;;;12.80;99.90;;;;;;5027213;28;20047;-71
2020/12/22 02:21:19;;;;;;;;;;;12.80;99.90;;;;;;5021492;28;19952;-71
2020/12/22 02:23:49;;;;;;;;;;;12.80;99.90;;;;;;5025210;28;19925;-71
2020/12/22 02:26:16;;;;;;;;;;;12.80;99.90;;;;;;5029418;28;19960;-71
2020/12/22 02:28:42;;;;;;;;;;;12.80;99.90;;;;;;5026426;28;19924;-71
2020/12/22 02:31:09;;;;;;;;;;;12.80;99.90;;;;;;5021057;28;19983;-71
2020/12/22 02:33:36;;;;;;;;;;;12.80;99.90;;;;;;5026306;28;20017;-71
2020/12/22 02:36:06;;;;;;;;;;;12.80;99.90;;;;;;5017972;28;20048;-70
2020/12/22 02:38:33;;;;;;;;;;;12.80;99.90;;;;;;5023565;28;19921;-71
2020/12/22 02:40:59;;;;;;;;;;;12.80;99.90;;;;;;5023281;28;19922;-70
2020/12/22 02:43:26;;;;;;;;;;;12.80;99.90;;;;;;5027450;28;20337;-70
2020/12/22 02:45:52;;;;;;;;;;;12.80;99.90;;;;;;5028564;28;20292;-70
2020/12/22 02:48:18;;;;;;;;;;;12.80;99.90;;;;;;5025108;28;19974;-70
2020/12/22 02:50:44;;;;;;;;;;;12.80;99.90;;;;;;5026882;28;19929;-71
2020/12/22 02:53:11;;;;;;;;;;;12.80;99.90;;;;;;5020141;28;20392;-70
2020/12/22 02:55:37;;;;;;;;;;;12.80;99.90;;;;;;5032688;28;20368;-70
2020/12/22 02:58:04;;;;;;;;;;;12.80;99.90;;;;;;5023366;28;19970;-70
2020/12/22 03:00:30;;;;;;;;;;;12.80;99.90;;;;;;5027138;28;19964;-70
2020/12/22 03:02:57;;;;;;;;;;;12.80;99.90;;;;;;5022952;28;19929;-70
2020/12/22 03:05:24;;;;;;;;;;;12.80;99.90;;;;;;5025627;28;19948;-71
2020/12/22 03:07:50;;;;;;;;;;;12.70;99.90;;;;;;5026243;28;19952;-70
2020/12/22 03:10:17;;;;;;;;;;;12.70;99.90;;;;;;5024064;28;19929;-70
2020/12/22 03:12:44;;;;;;;;;;;12.70;99.90;;;;;;5018582;28;20411;-70
2020/12/22 03:15:10;;;;;;;;;;;12.70;99.90;;;;;;5045215;28;19921;-70
2020/12/22 03:17:37;;;;;;;;;;;12.70;99.90;;;;;;5024772;28;19925;-70
2020/12/22 03:20:05;;;;;;;;;;;12.70;99.90;;;;;;5029018;28;19921;-70
2020/12/22 03:22:33;;;;;;;;;;;12.70;99.90;;;;;;5028505;28;19929;-70
2020/12/22 03:24:59;;;;;;;;;;;12.70;99.90;;;;;;5031319;28;19971;-70
2020/12/22 03:27:25;;;;;;;;;;;12.70;99.90;;;;;;5016010;28;19980;-70
2020/12/22 03:29:52;;;;;;;;;;;12.70;99.90;;;;;;5026076;28;19967;-70
2020/12/22 03:32:18;;;;;;;;;;;12.70;99.90;;;;;;5028123;28;20455;-70
2020/12/22 03:34:45;;;;;;;;;;;12.70;99.90;;;;;;5022239;28;20600;-70
2020/12/22 03:37:11;;;;;;;;;;;12.70;99.90;;;;;;5027678;28;19960;-70
2020/12/22 03:39:38;;;;;;;;;;;12.70;99.90;;;;;;5024375;28;19956;-70
2020/12/22 03:42:04;;;;;;;;;;;12.70;99.90;;;;;;5030158;28;20513;-70
2020/12/22 03:44:30;;;;;;;;;;;12.70;99.90;;;;;;5020116;28;19952;-70
2020/12/22 03:46:57;;;;;;;;;;;12.70;99.90;;;;;;5017170;28;19972;-70
2020/12/22 03:49:23;;;;;;;;;;;12.70;99.90;;;;;;5022621;28;20345;-70
2020/12/22 03:51:50;;;;;;;;;;;12.70;99.90;;;;;;5027146;28;19965;-70
2020/12/22 03:54:16;;;;;;;;;;;12.70;99.90;;;;;;5016477;28;20014;-71
2020/12/22 03:56:42;;;;;;;;;;;12.70;99.90;;;;;;5030347;28;19937;-72
2020/12/22 03:59:08;;;;;;;;;;;12.70;99.90;;;;;;5017885;28;20356;-72
2020/12/22 04:01:35;;;;;;;;;;;12.70;99.90;;;;;;5026187;28;19921;-71
2020/12/22 04:04:01;;;;;;;;;;;12.60;99.90;;;;;;5027488;28;19971;-72
2020/12/22 04:06:27;;;;;;;;;;;12.60;99.90;;;;;;5022281;28;19995;-71
2020/12/22 04:08:54;;;;;;;;;;;12.60;99.90;;;;;;5031796;28;19925;-71
2020/12/22 04:11:21;;;;;;;;;;;12.60;99.90;;;;;;5026287;28;19921;-71
2020/12/22 04:13:47;;;;;;;;;;;12.60;99.90;;;;;;5018506;28;19964;-71
2020/12/22 04:16:14;;;;;;;;;;;12.60;99.90;;;;;;5018971;28;19921;-71
2020/12/22 04:18:40;;;;;;;;;;;12.60;99.90;;;;;;5025241;28;20415;-71
2020/12/22 04:21:07;;;;;;;;;;;12.50;99.90;;;;;;5030441;28;19929;-71
2020/12/22 04:23:33;;;;;;;;;;;12.60;99.90;;;;;;5023632;28;20335;-71
2020/12/22 04:26:00;;;;;;;;;;;12.60;99.90;;;;;;5020773;28;19986;-70
2020/12/22 04:28:26;;;;;;;;;;;12.60;99.90;;;;;;5023367;28;19921;-70
2020/12/22 04:30:53;;;;;;;;;;;12.50;99.90;;;;;;5021138;28;19922;-70
2020/12/22 04:33:19;;;;;;;;;;;12.50;99.90;;;;;;5021593;28;19921;-70
2020/12/22 04:35:45;;;;;;;;;;;12.50;99.90;;;;;;5029525;28;19921;-70
2020/12/22 04:38:12;;;;;;;;;;;12.50;99.90;;;;;;5030234;28;20349;-70
2020/12/22 04:40:38;;;;;;;;;;;12.50;99.90;;;;;;5032349;28;19925;-70
2020/12/22 04:43:05;;;;;;;;;;;12.50;99.90;;;;;;5026848;28;19987;-70
2020/12/22 04:45:34;;;;;;;;;;;12.50;99.90;;;;;;5025836;28;20008;-70
2020/12/22 04:48:00;;;;;;;;;;;12.50;99.90;;;;;;5027792;28;19921;-70
2020/12/22 04:50:27;;;;;;;;;;;12.50;99.90;;;;;;5022010;28;19925;-70
2020/12/22 04:52:53;;;;;;;;;;;12.50;99.90;;;;;;5024568;28;20734;-70
2020/12/22 04:55:20;;;;;;;;;;;12.50;99.90;;;;;;5015823;28;20357;-70
2020/12/22 04:57:48;;;;;;;;;;;12.50;99.90;;;;;;5029996;28;20334;-70
2020/12/22 05:00:17;;;;;;;;;;;12.50;99.90;;;;;;5043794;28;19935;-70
2020/12/22 05:02:44;;;;;;;;;;;12.50;99.90;;;;;;5024921;28;19945;-70
2020/12/22 05:05:11;;;;;;;;;;;12.50;99.90;;;;;;5030557;28;20312;-70
2020/12/22 05:07:38;;;;;;;;;;;12.50;99.90;;;;;;5027615;28;19932;-70
2020/12/22 05:10:05;;;;;;;;;;;12.50;99.90;;;;;;5021630;28;19921;-70
2020/12/22 05:12:31;;;;;;;;;;;12.50;99.90;;;;;;5025452;28;20262;-69
2020/12/22 05:15:00;;;;;;;;;;;12.50;99.90;;;;;;5031387;28;19921;-70
2020/12/22 05:17:26;;;;;;;;;;;12.50;99.90;;;;;;5025172;28;20549;-70
2020/12/22 05:19:54;;;;;;;;;;;12.50;99.90;;;;;;5027273;28;19929;-70
2020/12/22 05:22:21;;;;;;;;;;;12.50;99.90;;;;;;5029440;28;19975;-70
2020/12/22 05:24:49;;;;;;;;;;;12.50;99.90;;;;;;5025888;28;20230;-69
2020/12/22 05:27:17;;;;;;;;;;;12.50;99.90;;;;;;5030097;28;20310;-69
2020/12/22 05:29:43;;;;;;;;;;;12.50;99.90;;;;;;5019512;28;20376;-69
2020/12/22 05:32:10;;;;;;;;;;;12.50;99.90;;;;;;5027389;28;20319;-70
2020/12/22 05:34:36;;;;;;;;;;;12.50;99.90;;;;;;5029330;28;19928;-70
2020/12/22 05:37:06;;;;;;;;;;;12.50;99.90;;;;;;5022884;28;19956;-70
2020/12/22 05:39:36;;;;;;;;;;;12.50;99.90;;;;;;5009575;28;19961;-69
2020/12/22 05:42:11;;;;;;;;;;;12.50;99.90;;;;;;5024082;28;19948;-70
2020/12/22 05:44:40;;;;;;;;;;;12.60;99.90;;;;;;5021953;28;19965;-70
2020/12/22 05:47:08;;;;;;;;;;;12.60;99.90;;;;;;5019357;28;19925;-69
2020/12/22 05:49:35;;;;;;;;;;;12.50;99.90;;;;;;5028846;28;19925;-70
2020/12/22 05:52:06;;;;;;;;;;;12.60;99.90;;;;;;5032901;28;20272;-69
2020/12/22 05:54:35;;;;;;;;;;;12.60;99.90;;;;;;5027750;28;19933;-70
2020/12/22 05:57:05;;;;;;;;;;;12.60;99.90;;;;;;5031326;28;20324;-69
2020/12/22 05:59:32;;;;;;;;;;;12.60;99.90;;;;;;5026738;28;20017;-69
2020/12/22 06:01:58;;;;;;;;;;;12.60;99.90;;;;;;5027396;28;20015;-69
2020/12/22 06:04:25;;;;;;;;;;;12.60;99.90;;;;;;5022031;28;20190;-69
2020/12/22 06:06:51;;;;;;;;;;;12.60;99.90;;;;;;5029570;28;20012;-69
2020/12/22 06:09:18;;;;;;;;;;;12.60;99.90;;;;;;5022672;28;19921;-69
2020/12/22 06:11:46;;;;;;;;;;;12.60;99.90;;;;;;5037085;28;19925;-69
2020/12/22 06:14:15;;;;;;;;;;;12.60;99.90;;;;;;5022970;28;19968;-69
2020/12/22 06:16:42;;;;;;;;;;;12.60;99.90;;;;;;5014306;28;20036;-69
2020/12/22 06:19:08;;;;;;;;;;;12.60;99.90;;;;;;5035204;28;20004;-69
2020/12/22 06:21:35;;;;;;;;;;;12.60;99.90;;;;;;5026637;28;19983;-69
2020/12/22 06:24:01;;;;;;;;;;;12.60;99.90;;;;;;5021130;28;19955;-69
2020/12/22 06:26:28;;;;;;;;;;;12.60;99.90;;;;;;5027340;28;19930;-70
2020/12/22 06:28:54;;;;;;;;;;;12.60;99.90;;;;;;5023821;28;20026;-69
2020/12/22 06:31:21;;;;;;;;;;;12.60;99.90;;;;;;5019519;28;20455;-69
2020/12/22 06:33:50;;;;;;;;;;;12.60;99.90;;;;;;5016232;28;19921;-69
2020/12/22 06:36:19;;;;;;;;;;;12.60;99.90;;;;;;5021655;28;19957;-69
2020/12/22 06:38:53;;;;;;;;;;;12.60;99.90;;;;;;5016737;28;19922;-69
2020/12/22 06:41:26;;;;;;;;;;;12.50;99.90;;;;;;5024670;28;20361;-69
2020/12/22 06:43:55;;;;;;;;;;;12.60;99.90;;;;;;5023393;28;20314;-69
2020/12/22 06:46:34;;;;;;;;;;;12.50;99.90;;;;;;5017179;28;20459;-68
2020/12/22 06:49:01;;;;;;;;;;;12.50;99.90;;;;;;5017862;28;19975;-68
2020/12/22 06:51:29;;;;;;;;;;;12.50;99.90;;;;;;5016800;28;19929;-68
2020/12/22 06:53:56;;;;;;;;;;;12.50;99.90;;;;;;5019398;28;19925;-68
2020/12/22 06:56:38;;;;;;;;;;;12.50;99.90;;;;;;5021280;28;19921;-68
2020/12/22 06:59:05;;;;;;;;;;;12.50;99.90;;;;;;5015227;28;19999;-68
2020/12/22 07:01:32;;;;;;;;;;;12.50;99.90;;;;;;5026527;28;20321;-69
2020/12/22 07:04:11;;;;;;;;;;;12.50;99.90;;;;;;5023889;28;19921;-69
2020/12/22 07:06:50;;;;;;;;;;;12.50;99.90;;;;;;5027780;28;19987;-69
2020/12/22 07:09:27;;;;;;;;;;;12.50;99.90;;;;;;5020550;28;19973;-69
2020/12/22 07:11:56;;;;;;;;;;;12.50;99.90;;;;;;5024426;28;20426;-69
2020/12/22 07:14:23;;;;;;;;;;;12.50;99.90;;;;;;5025098;28;20047;-69
2020/12/22 07:16:52;;;;;;;;;;;12.40;99.90;;;;;;5020373;28;19922;-69
2020/12/22 07:19:22;;;;;;;;;;;12.50;99.90;;;;;;5021828;28;19953;-69
2020/12/22 07:21:50;;;;;;;;;;;12.50;99.90;;;;;;5033707;28;19967;-69
2020/12/22 07:24:16;;;;;;;;;;;12.40;99.90;;;;;;5025362;28;20415;-69
2020/12/22 07:26:43;;;;;;;;;;;12.40;99.90;;;;;;5023759;28;19937;-69
2020/12/22 07:29:09;;;;;;;;;;;12.40;99.90;;;;;;5022954;28;20438;-68
2020/12/22 07:31:36;;;;;;;;;;;12.30;99.90;;;;;;5020201;28;19921;-68
2020/12/22 07:34:05;;;;;;;;;;;12.30;99.90;;;;;;5024421;28;19972;-68
2020/12/22 07:36:32;;;;;;;;;;;12.20;99.90;;;;;;5021298;28;19964;-68
2020/12/22 07:39:17;;;;;;;;;;;12.20;99.90;;;;;;5020551;28;19957;-68
2020/12/22 07:41:45;;;;;;;;;;;12.10;99.90;;;;;;5025483;28;19928;-68
2020/12/22 07:44:16;;;;;;;;;;;12.10;99.90;;;;;;5016332;28;19935;-68
2020/12/22 07:46:43;;;;;;;;;;;12.00;99.90;;;;;;5005609;28;19926;-68
2020/12/22 07:49:10;;;;;;;;;;;12.00;99.90;;;;;;5017727;28;19932;-69
2020/12/22 07:51:42;;;;;;;;;;;12.10;99.90;;;;;;5019847;28;20003;-69
2020/12/22 07:54:08;;;;;;;;;;;12.00;99.90;;;;;;5020204;28;20264;-69
2020/12/22 07:56:36;;;;;;;;;;;12.00;99.90;;;;;;5016423;28;20048;-68
2020/12/22 07:59:04;;;;;;;;;;;12.00;99.90;;;;;;5031468;28;19979;-68
2020/12/22 08:01:41;;;;;;;;;;;12.00;99.90;;;;;;5032364;28;19987;-68
2020/12/22 08:04:18;;;;;;;;;;;12.00;99.90;;;;;;5022835;28;19920;-68
2020/12/22 08:07:06;;;;;;;;;;;12.00;99.90;;;;;;5017368;28;20018;-68
2020/12/22 08:09:32;;;;;;;;;;;12.00;99.90;;;;;;5018386;28;19968;-68
2020/12/22 08:11:59;;;;;;;;;;;12.00;99.90;;;;;;5021454;28;19968;-68
2020/12/22 08:14:26;;;;;;;;;;;12.00;99.90;;;;;;5011426;28;20306;-68
2020/12/22 08:16:58;;;;;;;;;;;12.10;99.90;;;;;;5021456;28;20007;-68
2020/12/22 08:19:27;;;;;;;;;;;12.10;99.90;;;;;;5020864;28;20419;-68
2020/12/22 08:21:55;;;;;;;;;;;12.10;99.90;;;;;;5025241;28;19925;-68
2020/12/22 08:24:21;;;;;;;;;;;12.10;99.90;;;;;;5019594;28;20007;-68
2020/12/22 08:26:49;;;;;;;;;;;12.10;99.90;;;;;;5019164;28;19975;-69
2020/12/22 08:29:16;;;;;;;;;;;12.10;99.90;;;;;;5012139;28;19940;-68
2020/12/22 08:31:43;;;;;;;;;;;12.20;99.90;;;;;;5019987;28;19979;-68
2020/12/22 08:34:10;;;;;;;;;;;12.20;99.90;;;;;;5019556;28;19976;-69
2020/12/22 08:36:37;;;;;;;;;;;12.20;99.90;;;;;;5033781;28;20345;-69
2020/12/22 08:39:22;;;;;;;;;;;12.20;99.90;;;;;;5022839;28;19960;-69
2020/12/22 08:41:53;;;;;;;;;;;12.20;99.90;;;;;;5015984;28;20124;-69
2020/12/22 08:44:20;;;;;;;;;;;12.30;99.90;;;;;;5029116;28;20349;-69
2020/12/22 08:46:46;;;;;;;;;;;12.30;99.90;;;;;;5021760;28;20356;-68
2020/12/22 08:49:25;;;;;;;;;;;12.30;99.90;;;;;;5011483;28;19956;-68
2020/12/22 08:51:56;;;;;;;;;;;12.30;99.90;;;;;;5031729;28;19929;-68
2020/12/22 08:54:26;;;;;;;;;;;12.30;99.90;;;;;;5021468;28;19925;-68
2020/12/22 08:56:53;;;;;;;;;;;12.30;99.90;;;;;;5016135;28;20371;-68
2020/12/22 08:59:27;;;;;;;;;;;12.30;99.90;;;;;;5014981;28;20035;-68
2020/12/22 09:01:53;;;;;;;;;;;12.30;99.90;;;;;;5019794;28;19929;-68
2020/12/22 09:04:27;;;;;;;;;;;12.20;99.90;;;;;;5020019;28;19944;-68
2020/12/22 09:06:53;;;;;;;;;;;12.10;99.90;;;;;;5009112;28;20139;-68
2020/12/22 09:09:32;;;;;;;;;;;12.10;99.90;;;;;;5012306;28;19970;-68
2020/12/22 09:12:18;;;;;;;;;;;12.00;99.90;;;;;;5009393;28;19963;-68
2020/12/22 09:14:45;;;;;;;;;;;12.00;99.90;;;;;;5020451;28;19921;-68
2020/12/22 09:17:12;;;;;;;;;;;12.00;99.90;;;;;;5018197;28;19921;-68
2020/12/22 09:19:43;;;;;;;;;;;11.90;99.90;;;;;;5023645;28;19929;-68
2020/12/22 09:22:11;;;;;;;;;;;11.90;99.90;;;;;;5023751;28;19929;-68
2020/12/22 09:24:38;;;;;;;;;;;11.90;99.90;;;;;;5020940;28;20004;-69
2020/12/22 09:27:05;;;;;;;;;;;11.90;99.90;;;;;;5024376;28;19994;-68
2020/12/22 09:29:32;;;;;;;;;;;11.90;99.90;;;;;;5026070;28;19921;-67
2020/12/22 09:31:59;;;;;;;;;;;11.90;99.90;;;;;;5019439;28;19921;-67
2020/12/22 09:34:26;;;;;;;;;;;11.90;99.90;;;;;;5026646;28;19993;-68
2020/12/22 09:36:53;;;;;;;;;;;11.90;99.90;;;;;;5024408;28;20011;-68
2020/12/22 09:39:20;;;;;;;;;;;11.90;99.90;;;;;;5022929;28;20441;-68
2020/12/22 09:41:47;;;;;;;;;;;11.90;99.90;;;;;;5035861;28;19929;-68
2020/12/22 09:44:13;;;;;;;;;;;11.90;99.90;;;;;;5028760;28;20352;-68
2020/12/22 09:46:40;;;;;;;;;;;11.90;99.90;;;;;;5011756;28;19961;-68
2020/12/22 09:49:06;;;;;;;;;;;11.90;99.90;;;;;;5035542;28;20266;-68
2020/12/22 09:51:34;;;;;;;;;;;11.80;99.90;;;;;;5017418;28;20331;-68
2020/12/22 09:54:13;;;;;;;;;;;11.90;99.90;;;;;;5017868;28;19925;-68
2020/12/22 09:56:39;;;;;;;;;;;11.80;99.90;;;;;;5033855;28;19932;-67
2020/12/22 09:59:06;;;;;;;;;;;11.90;99.90;;;;;;5013945;28;19921;-69
2020/12/22 10:01:32;;;;;;;;;;;11.80;99.90;;;;;;5037764;28;19978;-68
2020/12/22 10:03:59;;;;;;;;;;;11.80;99.90;;;;;;5030882;28;20325;-68
2020/12/22 10:06:26;;;;;;;;;;;11.80;99.90;;;;;;5043551;28;19921;-68
2020/12/22 10:08:53;;;;;;;;;;;11.70;99.90;;;;;;5023938;28;19925;-68
2020/12/22 10:11:20;;;;;;;;;;;11.60;99.90;;;;;;5022370;28;19960;-68
2020/12/22 10:13:47;;;;;;;;;;;11.60;99.90;;;;;;5019875;28;20327;-68
2020/12/22 10:16:14;;;;;;;;;;;11.60;99.90;;;;;;5029735;28;19968;-68
2020/12/22 10:18:40;;;;;;;;;;;11.50;99.90;;;;;;5023046;28;19986;-68
2020/12/22 10:21:08;;;;;;;;;;;11.50;99.90;;;;;;5028295;28;19968;-68
2020/12/22 10:23:38;;;;;;;;;;;11.50;99.90;;;;;;5021935;28;20996;-68
2020/12/22 10:26:05;;;;;;;;;;;11.50;99.90;;;;;;5027785;28;19921;-67
2020/12/22 10:28:32;;;;;;;;;;;11.50;99.90;;;;;;5019096;28;19921;-68
2020/12/22 10:30:59;;;;;;;;;;;11.40;99.90;;;;;;5029401;28;19928;-69
2020/12/22 10:33:25;;;;;;;;;;;11.40;99.90;;;;;;5009365;28;19960;-69
2020/12/22 10:35:52;;;;;;;;;;;11.40;99.90;;;;;;5032538;28;19928;-69
2020/12/22 10:38:18;;;;;;;;;;;11.40;99.90;;;;;;5030362;28;19926;-69
2020/12/22 10:40:45;;;;;;;;;;;11.40;99.90;;;;;;5032901;28;20313;-69
2020/12/22 10:43:12;;;;;;;;;;;11.40;99.90;;;;;;5025462;28;20008;-69
2020/12/22 10:45:38;;;;;;;;;;;11.30;99.90;;;;;;5023620;28;20249;-69
2020/12/22 10:48:06;;;;;;;;;;;11.30;99.90;;;;;;5029689;28;20412;-69
2020/12/22 10:50:34;;;;;;;;;;;11.30;99.90;;;;;;5033103;28;19983;-69
2020/12/22 10:53:00;;;;;;;;;;;11.30;99.90;;;;;;5022375;28;19933;-69
2020/12/22 10:55:26;;;;;;;;;;;11.30;99.90;;;;;;5038536;28;19921;-69
2020/12/22 10:57:53;;;;;;;;;;;11.20;99.90;;;;;;5018398;28;19975;-69
2020/12/22 11:00:19;;;;;;;;;;;11.20;99.90;;;;;;5021471;28;19924;-69
2020/12/22 11:02:48;;;;;;;;;;;11.20;99.90;;;;;;5019085;28;19928;-69
2020/12/22 11:05:14;;;;;;;;;;;11.10;99.90;;;;;;5036386;28;19971;-69
2020/12/22 11:07:46;;;;;;;;;;;11.10;99.90;;;;;;5020900;28;20016;-69
2020/12/22 11:10:13;;;;;;;;;;;11.10;99.90;;;;;;5022117;28;19921;-69
2020/12/22 11:12:40;;;;;;;;;;;11.00;99.90;;;;;;5031520;28;19925;-69
2020/12/22 11:15:08;;;;;;;;;;;11.00;99.90;;;;;;5021709;28;20044;-69
2020/12/22 11:17:34;;;;;;;;;;;11.00;99.90;;;;;;5019383;28;20048;-68
2020/12/22 11:20:01;;;;;;;;;;;10.90;99.90;;;;;;5038034;28;19932;-69
2020/12/22 11:22:27;;;;;;;;;;;10.90;99.90;;;;;;5025757;28;20002;-69
2020/12/22 11:25:02;;;;;;;;;;;10.90;99.90;;;;;;5025410;28;19964;-69
2020/12/22 11:27:28;;;;;;;;;;;10.90;99.90;;;;;;5021853;28;19929;-68
2020/12/22 11:29:54;;;;;;;;;;;10.90;99.90;;;;;;5019994;28;19924;-68
2020/12/22 11:32:21;;;;;;;;;;;10.80;99.90;;;;;;5018499;28;19995;-68
2020/12/22 11:34:47;;;;;;;;;;;10.80;99.90;;;;;;5023452;28;20027;-68
2020/12/22 11:37:14;;;;;;;;;;;10.80;99.90;;;;;;5012523;28;19941;-68
2020/12/22 11:39:41;;;;;;;;;;;10.80;99.90;;;;;;5021122;28;20245;-68
2020/12/22 11:42:08;;;;;;;;;;;10.70;99.90;;;;;;5033155;28;19927;-68
2020/12/22 11:44:35;;;;;;;;;;;10.80;99.90;;;;;;5017654;28;19929;-68
2020/12/22 11:47:01;;;;;;;;;;;10.70;99.90;;;;;;5029618;28;19957;-68
2020/12/22 11:49:28;;;;;;;;;;;10.70;99.90;;;;;;5015999;28;21711;-68
2020/12/22 11:51:55;;;;;;;;;;;10.80;99.90;;;;;;5013200;28;19990;-68
2020/12/22 11:54:21;;;;;;;;;;;10.80;99.90;;;;;;5012310;28;20074;-68
2020/12/22 11:56:48;;;;;;;;;;;10.80;99.90;;;;;;5029696;28;19929;-68
2020/12/22 11:59:15;;;;;;;;;;;10.80;99.90;;;;;;5015354;28;20439;-68
2020/12/22 12:01:41;;;;;;;;;;;10.80;99.90;;;;;;5039979;28;19964;-68
2020/12/22 12:04:07;;;;;;;;;;;10.80;99.90;;;;;;5019687;28;20031;-68
2020/12/22 12:06:34;;;;;;;;;;;10.80;99.90;;;;;;5020726;28;19945;-68
2020/12/22 12:09:00;;;;;;;;;;;10.80;99.90;;;;;;5021431;28;19941;-68
2020/12/22 12:11:27;;;;;;;;;;;10.90;99.90;;;;;;5012612;28;19925;-68
2020/12/22 12:13:53;;;;;;;;;;;10.90;99.90;;;;;;5030065;28;20416;-68
2020/12/22 12:16:20;;;;;;;;;;;11.00;99.90;;;;;;5022695;28;19968;-68
2020/12/22 12:18:46;;;;;;;;;;;11.00;99.90;;;;;;5016415;28;20386;-68
2020/12/22 12:21:16;;;;;;;;;;;11.00;99.90;;;;;;5031867;28;19925;-68
2020/12/22 12:23:42;;;;;;;;;;;11.00;99.90;;;;;;5012961;28;20022;-68
2020/12/22 12:26:10;;;;;;;;;;;10.90;99.90;;;;;;5014394;28;20023;-68
2020/12/22 12:28:37;;;;;;;;;;;11.00;99.90;;;;;;5023621;28;20348;-68
2020/12/22 12:31:04;;;;;;;;;;;11.00;99.90;;;;;;5026979;28;20484;-68
2020/12/22 12:33:30;;;;;;;;;;;11.10;99.90;;;;;;5032402;28;19921;-68
2020/12/22 12:35:58;;;;;;;;;;;11.20;99.90;;;;;;5017777;28;20459;-68
2020/12/22 12:38:24;;;;;;;;;;;11.20;99.90;;;;;;5020872;28;19936;-68
2020/12/22 12:40:51;;;;;;;;;;;11.40;99.90;;;;;;5015234;28;20513;-68
2020/12/22 12:43:17;;;;;;;;;;;11.40;99.90;;;;;;5030535;28;20013;-68
2020/12/22 12:45:43;;;;;;;;;;;11.50;99.90;;;;;;5020266;28;20499;-69
2020/12/22 12:48:10;;;;;;;;;;;11.70;99.90;;;;;;5030173;28;19933;-69
2020/12/22 12:50:37;;;;;;;;;;;11.80;99.90;;;;;;5012968;28;19967;-69
2020/12/22 12:53:03;;;;;;;;;;;11.80;99.90;;;;;;5030747;28;19979;-69
2020/12/22 12:55:30;;;;;;;;;;;11.80;99.90;;;;;;5017926;28;19925;-69
2020/12/22 12:57:58;;;;;;;;;;;11.70;99.90;;;;;;5015787;28;20347;-69
2020/12/22 13:00:24;;;;;;;;;;;11.60;99.90;;;;;;5032371;28;19929;-69
2020/12/22 13:02:51;;;;;;;;;;;11.50;99.90;;;;;;5038661;28;19975;-69
2020/12/22 13:05:18;;;;;;;;;;;11.50;99.90;;;;;;5019779;28;19968;-69
2020/12/22 13:07:44;;;;;;;;;;;11.40;99.90;;;;;;5033303;28;19921;-69
2020/12/22 13:10:11;;;;;;;;;;;11.40;99.90;;;;;;5029242;28;19924;-69
2020/12/22 13:12:38;;;;;;;;;;;11.40;99.90;;;;;;5035303;28;20938;-69
2020/12/22 13:15:04;;;;;;;;;;;11.40;99.90;;;;;;5021176;28;19971;-69
2020/12/22 13:17:32;;;;;;;;;;;11.40;99.90;;;;;;5013563;28;19987;-70
2020/12/22 13:19:59;;;;;;;;;;;11.40;99.90;;;;;;5029640;28;19921;-69
2020/12/22 13:22:25;;;;;;;;;;;11.40;99.90;;;;;;5023335;28;20689;-69
2020/12/22 13:24:52;;;;;;;;;;;11.40;99.90;;;;;;5029219;28;19964;-69
2020/12/22 13:27:18;;;;;;;;;;;11.40;99.90;;;;;;5021627;28;19967;-70
2020/12/22 13:29:45;;;;;;;;;;;11.40;99.90;;;;;;5019032;28;20313;-69
2020/12/22 13:32:11;;;;;;;;;;;11.40;99.90;;;;;;5023417;28;19921;-69
2020/12/22 13:34:37;;;;;;;;;;;11.40;99.90;;;;;;5019118;28;19978;-69
2020/12/22 13:37:24;;;;;;;;;;;11.40;99.90;;;;;;5033693;28;20020;-69
2020/12/22 13:40:07;;;;;;;;;;;11.40;99.90;;;;;;5022770;28;19979;-69
2020/12/22 13:42:34;;;;;;;;;;;11.40;99.90;;;;;;5030398;28;19967;-69
2020/12/22 13:45:00;;;;;;;;;;;11.40;99.90;;;;;;5030476;28;20424;-69
2020/12/22 13:47:27;;;;;;;;;;;11.30;99.90;;;;;;5025027;28;19987;-69
2020/12/22 13:49:53;;;;;;;;;;;11.30;99.90;;;;;;5035552;28;20384;-69
2020/12/22 13:52:20;;;;;;;;;;;11.30;99.90;;;;;;5020091;28;19972;-70
2020/12/22 13:54:46;;;;;;;;;;;11.20;99.90;;;;;;5028566;28;19925;-69
2020/12/22 13:57:13;;;;;;;;;;;11.20;99.90;;;;;;5022652;28;19925;-69
2020/12/22 13:59:39;;;;;;;;;;;11.20;99.90;;;;;;5020113;28;19991;-69
2020/12/22 14:02:10;;;;;;;;;;;11.20;99.90;;;;;;5037842;28;19921;-70
2020/12/22 14:04:36;;;;;;;;;;;11.10;99.90;;;;;;5022408;28;19921;-69
2020/12/22 14:07:02;;;;;;;;;;;11.10;99.90;;;;;;5022445;28;20305;-69
2020/12/22 14:09:28;;;;;;;;;;;11.10;99.90;;;;;;5035032;28;19971;-69
2020/12/22 14:11:54;;;;;;;;;;;11.10;99.90;;;;;;5027456;28;20410;-69
2020/12/22 14:14:20;;;;;;;;;;;11.10;99.90;;;;;;5020971;28;19925;-69
2020/12/22 14:16:49;;;;;;;;;;;11.10;99.90;;;;;;5027358;28;19956;-69
2020/12/22 14:19:18;;;;;;;;;;;11.10;99.90;;;;;;5020653;28;19921;-69